Time;durP1;ratioP1;P1;durP2;ratioP2;P2;SDS_P1;SDS_P2;PMS_P1;PMS_P2;Temp;Humidity;BMP_temperature;BMP_pressure;BME280_temperature;BME280_humidity;BME280_pressure;Samples;Min_cycle;Max_cycle;Signal;HPM_P1;HPM_P2
2024/01/13 00:00:13;;;;;;;;;;;2.60;96.30;;;;;;5073350;28;20274;-90
2024/01/13 00:02:39;;;;;;;12.43;9.30;;;2.70;96.30;;;;;;5056220;28;20176;-89
2024/01/13 00:05:05;;;;;;;15.17;9.53;;;2.70;96.30;;;;;;5073877;28;20175;-90
2024/01/13 00:07:30;;;;;;;13.47;9.00;;;2.70;96.30;;;;;;5055862;28;20176;-91
2024/01/13 00:09:56;;;;;;;10.53;9.37;;;2.70;96.40;;;;;;5057279;28;20191;-90
2024/01/13 00:12:21;;;;;;;15.33;10.33;;;2.70;96.40;;;;;;5055864;28;20180;-91
2024/01/13 00:14:47;;;;;;;12.73;9.90;;;2.70;96.40;;;;;;5055856;28;20177;-92
2024/01/13 00:17:12;;;;;;;;;;;2.70;96.40;;;;;;5056213;28;20203;-91
2024/01/13 00:19:38;;;;;;;;;;;2.70;96.40;;;;;;5056314;28;19911;-91
2024/01/13 00:22:03;;;;;;;12.17;5.53;;;2.60;96.40;;;;;;5055679;28;20449;-91
2024/01/13 00:24:29;;;;;;;;;;;2.70;96.40;;;;;;5055823;28;20173;-91
2024/01/13 00:26:55;;;;;;;13.30;5.80;;;2.70;96.40;;;;;;5056052;28;19905;-92
2024/01/13 00:29:20;;;;;;;13.97;6.63;;;2.70;96.40;;;;;;5073687;28;20389;-91
2024/01/13 00:31:46;;;;;;;16.57;5.73;;;2.70;96.50;;;;;;5055545;28;20230;-91
2024/01/13 00:34:11;;;;;;;8.10;6.00;;;2.70;96.50;;;;;;5073475;28;20517;-91
2024/01/13 00:36:37;;;;;;;17.80;7.23;;;2.60;96.50;;;;;;5055362;28;20223;-91
2024/01/13 00:39:02;;;;;;;16.53;7.73;;;2.60;96.50;;;;;;5056291;28;20203;-91
2024/01/13 00:41:28;;;;;;;15.23;8.13;;;2.70;96.60;;;;;;5056202;28;20164;-90
2024/01/13 00:43:53;;;;;;;14.87;6.80;;;2.70;96.60;;;;;;5055424;28;20175;-91
2024/01/13 00:46:19;;;;;;;14.93;6.37;;;2.70;96.60;;;;;;5055795;28;20193;-90
2024/01/13 00:48:44;;;;;;;19.33;6.37;;;2.70;96.60;;;;;;5055339;28;20181;-91
2024/01/13 00:51:11;;;;;;;17.77;6.20;;;2.80;96.60;;;;;;5055535;28;20116;-90
2024/01/13 00:53:36;;;;;;;23.07;6.30;;;2.70;96.60;;;;;;5073532;28;20186;-91
2024/01/13 00:56:03;;;;;;;16.03;5.43;;;2.70;96.60;;;;;;5055162;28;20194;-91
2024/01/13 00:58:28;;;;;;;;;;;2.70;96.60;;;;;;5055459;28;20188;-91
2024/01/13 01:00:54;;;;;;;;;;;2.70;96.60;;;;;;5055471;28;19904;-91
2024/01/13 01:03:19;;;;;;;;;;;2.70;96.60;;;;;;5055718;28;19955;-91
2024/01/13 01:05:44;;;;;;;;;;;2.60;96.60;;;;;;5055495;28;19958;-92
2024/01/13 01:08:10;;;;;;;12.93;5.63;;;2.50;96.50;;;;;;5055646;28;19995;-91
2024/01/13 01:10:35;;;;;;;9.10;5.10;;;2.40;96.50;;;;;;5055084;28;20245;-93
2024/01/13 01:13:01;;;;;;;13.17;5.23;;;2.50;96.50;;;;;;5059292;28;20176;-92
2024/01/13 01:15:26;;;;;;;7.93;5.20;;;2.40;96.50;;;;;;5059227;28;20173;-91
2024/01/13 01:17:52;;;;;;;9.17;4.77;;;2.40;96.50;;;;;;5059529;28;20191;-91
2024/01/13 01:20:19;;;;;;;15.97;6.00;;;2.40;96.60;;;;;;5059087;28;20197;-91
2024/01/13 01:22:45;;;;;;;13.53;5.53;;;2.50;96.60;;;;;;5059188;28;20635;-91
2024/01/13 01:25:11;;;;;;;7.67;5.57;;;2.40;96.60;;;;;;5077225;28;20059;-91
2024/01/13 01:27:36;;;;;;;14.50;11.47;;;2.40;96.60;;;;;;5059694;28;20165;-90
2024/01/13 01:30:02;;;;;;;13.00;10.57;;;2.30;96.60;;;;;;5059224;28;20666;-91
2024/01/13 01:32:27;;;;;;;17.53;10.80;;;2.40;96.60;;;;;;5058723;28;20233;-90
2024/01/13 01:34:53;;;;;;;13.10;10.47;;;2.40;96.60;;;;;;5058903;28;20551;-91
2024/01/13 01:37:18;;;;;;;12.60;9.60;;;2.30;96.60;;;;;;5076700;28;20085;-91
2024/01/13 01:39:44;;;;;;;;;;;2.40;96.60;;;;;;5059039;28;19962;-92
2024/01/13 01:42:09;;;;;;;;;;;2.40;96.60;;;;;;5059683;28;19904;-91
2024/01/13 01:44:35;;;;;;;12.30;11.07;;;2.40;96.60;;;;;;5058903;28;19950;-91
2024/01/13 01:47:02;;;;;;;;;;;2.50;96.70;;;;;;5058747;28;20179;-91
2024/01/13 01:49:27;;;;;;;;;;;2.50;96.60;;;;;;5059008;28;19904;-91
2024/01/13 01:51:53;;;;;;;11.93;10.93;;;2.50;96.70;;;;;;5059301;28;19904;-88
2024/01/13 01:54:19;;;;;;;11.97;10.73;;;2.50;96.70;;;;;;5058735;28;20253;-90
2024/01/13 01:56:44;;;;;;;13.10;11.70;;;2.50;96.70;;;;;;5058695;28;20204;-91
2024/01/13 01:59:10;;;;;;;;;;;2.50;96.70;;;;;;5058876;28;19904;-91
2024/01/13 02:01:36;;;;;;;12.87;11.50;;;2.50;96.70;;;;;;5058317;28;20215;-91
2024/01/13 02:04:02;;;;;;;14.70;10.73;;;2.50;96.70;;;;;;5076099;28;20183;-91
2024/01/13 02:06:28;;;;;;;11.90;10.97;;;2.50;96.70;;;;;;5058255;28;20176;-91
2024/01/13 02:08:54;;;;;;;14.17;10.80;;;2.50;96.70;;;;;;5058353;28;20270;-91
2024/01/13 02:11:19;;;;;;;14.53;11.23;;;2.50;96.70;;;;;;5058147;28;20227;-91
2024/01/13 02:13:47;;;;;;;14.40;10.40;;;2.40;96.70;;;;;;5058342;28;20200;-90
2024/01/13 02:16:13;;;;;;;;;;;2.50;96.70;;;;;;5076286;28;20243;-91
2024/01/13 02:18:39;;;;;;;;;;;2.50;96.70;;;;;;5058534;28;19905;-91
2024/01/13 02:21:04;;;;;;;;;;;2.50;96.70;;;;;;5058472;28;19911;-91
2024/01/13 02:23:30;;;;;;;12.83;10.10;;;2.50;96.70;;;;;;5057332;28;19905;-91
2024/01/13 02:25:55;;;;;;;;;;;2.50;96.70;;;;;;5076104;28;20255;-91
2024/01/13 02:28:21;;;;;;;12.63;10.00;;;2.50;96.70;;;;;;5058118;28;19912;-91
2024/01/13 02:30:47;;;;;;;12.00;9.40;;;2.50;96.70;;;;;;5058320;28;20193;-91
2024/01/13 02:33:12;;;;;;;12.57;9.70;;;2.50;96.70;;;;;;5057755;28;20285;-91
2024/01/13 02:35:38;;;;;;;11.63;5.33;;;2.50;96.70;;;;;;5057857;28;20234;-91
2024/01/13 02:38:03;;;;;;;10.27;4.77;;;2.50;96.70;;;;;;5075732;28;20202;-91
2024/01/13 02:40:29;;;;;;;11.13;10.03;;;2.50;96.80;;;;;;5057807;28;20195;-91
2024/01/13 02:42:54;;;;;;;9.33;4.67;;;2.50;96.80;;;;;;5057789;28;20176;-90
2024/01/13 02:45:20;;;;;;;10.50;9.60;;;2.50;96.80;;;;;;5057673;28;20633;-90
2024/01/13 02:47:53;;;;;;;10.20;9.13;;;2.50;96.80;;;;;;5075632;28;20233;-90
2024/01/13 02:50:18;;;;;;;9.97;8.97;;;2.60;96.80;;;;;;5085018;28;20199;-91
2024/01/13 02:52:47;;;;;;;10.97;10.07;;;2.60;96.90;;;;;;5057291;28;20176;-91
2024/01/13 02:55:12;;;;;;;13.77;9.03;;;2.60;96.90;;;;;;5057344;28;20177;-92
2024/01/13 02:57:38;;;;;;;9.93;9.07;;;2.60;96.90;;;;;;5057558;28;20226;-91
2024/01/13 03:00:05;;;;;;;11.53;8.73;;;2.60;96.90;;;;;;5075542;28;20719;-91
2024/01/13 03:02:30;;;;;;;10.67;9.27;;;2.60;96.90;;;;;;5057278;28;20562;-91
2024/01/13 03:04:56;;;;;;;9.60;8.80;;;2.60;96.90;;;;;;5057222;28;20179;-91
2024/01/13 03:07:21;;;;;;;9.77;9.07;;;2.50;96.90;;;;;;5075333;28;20723;-92
2024/01/13 03:09:47;;;;;;;10.30;8.83;;;2.60;97.00;;;;;;5057104;28;20731;-91
2024/01/13 03:12:12;;;;;;;9.60;8.90;;;2.70;97.00;;;;;;5075001;28;20176;-91
2024/01/13 03:14:38;;;;;;;9.10;8.27;;;2.60;97.00;;;;;;5057034;28;20221;-91
2024/01/13 03:17:03;;;;;;;9.53;8.70;;;2.60;97.00;;;;;;5075053;28;20198;-91
2024/01/13 03:19:29;;;;;;;9.53;8.63;;;2.60;97.00;;;;;;5056845;28;20220;-92
2024/01/13 03:21:55;;;;;;;9.50;8.57;;;2.50;97.00;;;;;;5074980;28;20184;-91
2024/01/13 03:24:20;;;;;;;10.00;8.70;;;2.50;97.00;;;;;;5056848;28;20168;-92
2024/01/13 03:26:46;;;;;;;9.53;8.73;;;2.50;97.00;;;;;;5056979;28;20214;-91
2024/01/13 03:29:11;;;;;;;6.07;5.03;;;2.50;97.10;;;;;;5056929;28;20263;-92
2024/01/13 03:31:37;;;;;;;4.80;4.40;;;2.40;97.00;;;;;;5056850;28;20263;-91
2024/01/13 03:34:02;;;;;;;8.67;4.97;;;2.50;97.10;;;;;;5056420;28;20704;-92
2024/01/13 03:36:28;;;;;;;6.20;5.05;;;2.50;97.10;;;;;;5056580;28;20202;-91
2024/01/13 03:38:53;;;;;;;5.33;4.60;;;2.50;97.10;;;;;;5056554;28;20175;-91
2024/01/13 03:41:25;;;;;;;8.13;5.50;;;2.50;97.10;;;;;;5057240;28;20192;-90
2024/01/13 03:43:51;;;;;;;11.83;6.33;;;2.60;97.10;;;;;;5056487;28;20259;-91
2024/01/13 03:46:17;;;;;;;14.90;7.30;;;2.60;97.10;;;;;;5074518;28;20669;-90
2024/01/13 03:48:42;;;;;;;16.00;7.53;;;2.60;97.10;;;;;;5056315;28;20655;-90
2024/01/13 03:51:08;;;;;;;13.33;7.47;;;2.60;97.10;;;;;;5056230;28;20206;-91
2024/01/13 03:53:34;;;;;;;11.95;6.70;;;2.50;97.10;;;;;;5056306;28;20643;-91
2024/01/13 03:56:00;;;;;;;19.67;8.67;;;2.60;97.10;;;;;;5056080;28;20381;-91
2024/01/13 03:58:26;;;;;;;16.77;8.87;;;2.60;97.10;;;;;;5056074;28;20566;-90
2024/01/13 04:00:51;;;;;;;17.80;9.67;;;2.60;97.10;;;;;;5056071;28;20274;-91
2024/01/13 04:03:17;;;;;;;19.93;9.50;;;2.60;97.10;;;;;;5074015;28;20213;-91
2024/01/13 04:05:42;;;;;;;10.90;7.30;;;2.60;97.10;;;;;;5056096;28;20170;-91
2024/01/13 04:08:08;;;;;;;17.97;7.30;;;2.70;97.20;;;;;;5055929;28;20218;-91
2024/01/13 04:10:33;;;;;;;12.50;6.17;;;2.80;97.20;;;;;;5055875;28;20197;-91
2024/01/13 04:13:00;;;;;;;13.70;7.80;;;2.80;97.20;;;;;;5056162;28;20595;-91
2024/01/13 04:15:25;;;;;;;14.87;8.63;;;2.70;97.20;;;;;;5055911;28;20190;-91
2024/01/13 04:17:52;;;;;;;15.07;8.73;;;2.70;97.10;;;;;;5056091;28;20204;-91
2024/01/13 04:20:17;;;;;;;18.13;9.07;;;2.60;97.10;;;;;;5055610;28;20197;-91
2024/01/13 04:22:43;;;;;;;14.97;8.87;;;2.60;97.10;;;;;;5055818;28;20180;-91
2024/01/13 04:25:08;;;;;;;14.73;9.27;;;2.60;97.10;;;;;;5073577;28;20180;-91
2024/01/13 04:27:34;;;;;;;11.73;8.23;;;2.50;97.10;;;;;;5055623;28;20701;-90
2024/01/13 04:29:59;;;;;;;11.93;7.63;;;2.50;97.10;;;;;;5055865;28;20570;-90
2024/01/13 04:32:25;;;;;;;14.13;8.30;;;2.50;97.10;;;;;;5055389;28;20245;-91
2024/01/13 04:34:50;;;;;;;12.60;7.30;;;2.50;97.10;;;;;;5055649;28;20172;-91
2024/01/13 04:37:16;;;;;;;14.03;6.77;;;2.60;97.20;;;;;;5055398;28;20709;-90
2024/01/13 04:39:41;;;;;;;11.17;5.80;;;2.60;97.10;;;;;;5055428;28;20196;-91
2024/01/13 04:42:07;;;;;;;10.20;9.37;;;2.60;97.10;;;;;;5055439;28;20224;-90
2024/01/13 04:44:32;;;;;;;10.27;9.27;;;2.60;97.10;;;;;;5055438;28;20214;-91
2024/01/13 04:46:58;;;;;;;14.13;10.17;;;2.50;97.10;;;;;;5054967;28;20278;-91
2024/01/13 04:49:23;;;;;;;15.67;10.23;;;2.50;97.10;;;;;;5073117;28;20175;-91
2024/01/13 04:51:49;;;;;;;12.70;10.70;;;2.50;97.10;;;;;;5055347;28;20186;-90
2024/01/13 04:54:15;;;;;;;17.67;11.10;;;2.50;97.10;;;;;;5055353;28;20175;-91
2024/01/13 04:56:40;;;;;;;15.47;10.90;;;2.50;97.10;;;;;;5055110;28;20205;-91
2024/01/13 04:59:06;;;;;;;12.67;11.33;;;2.50;97.10;;;;;;5055298;28;20171;-91
2024/01/13 05:01:31;;;;;;;17.07;10.63;;;2.50;97.10;;;;;;5055257;28;20215;-91
2024/01/13 05:03:57;;;;;;;13.20;10.67;;;2.60;97.10;;;;;;5055271;28;20179;-91
2024/01/13 05:06:22;;;;;;;14.13;10.60;;;2.60;97.10;;;;;;5056051;28;20187;-90
2024/01/13 05:08:48;;;;;;;12.13;10.37;;;2.60;97.10;;;;;;5055366;28;20598;-91
2024/01/13 05:11:13;;;;;;;14.07;11.00;;;2.60;97.10;;;;;;5055073;28;20207;-91
2024/01/13 05:13:39;;;;;;;15.67;11.67;;;2.60;97.10;;;;;;5055024;28;20175;-91
2024/01/13 05:16:04;;;;;;;17.17;10.70;;;2.60;97.10;;;;;;5054979;28;20301;-91
2024/01/13 05:18:30;;;;;;;21.00;11.00;;;2.50;97.10;;;;;;5055128;28;20177;-91
2024/01/13 05:20:55;;;;;;;18.50;11.67;;;2.60;97.10;;;;;;5054834;28;20199;-91
2024/01/13 05:23:21;;;;;;;19.63;11.73;;;2.50;97.10;;;;;;5073356;28;20172;-91
2024/01/13 05:25:46;;;;;;;16.40;11.47;;;2.50;97.10;;;;;;5055281;28;20171;-91
2024/01/13 05:28:12;;;;;;;18.67;11.27;;;2.50;97.10;;;;;;5072900;28;20186;-92
2024/01/13 05:30:37;;;;;;;18.47;11.03;;;2.40;97.10;;;;;;5054984;28;20191;-91
2024/01/13 05:33:03;;;;;;;15.43;11.43;;;2.40;97.10;;;;;;5054682;28;20199;-90
2024/01/13 05:35:29;;;;;;;16.23;11.03;;;2.50;97.10;;;;;;5054834;28;20583;-91
2024/01/13 05:37:54;;;;;;;21.33;14.37;;;2.40;97.10;;;;;;5054768;28;20210;-91
2024/01/13 05:40:20;;;;;;;17.70;11.63;;;2.50;97.20;;;;;;5054729;28;20679;-91
2024/01/13 05:42:46;;;;;;;17.03;12.03;;;2.50;97.10;;;;;;5054685;28;20655;-91
2024/01/13 05:45:11;;;;;;;22.07;13.47;;;2.40;97.10;;;;;;5054812;28;20179;-91
2024/01/13 05:47:37;;;;;;;25.60;15.33;;;2.40;97.10;;;;;;5054710;28;20183;-91
2024/01/13 05:50:03;;;;;;;22.87;14.40;;;2.50;97.20;;;;;;5054792;28;20205;-91
2024/01/13 05:52:28;;;;;;;26.40;14.57;;;2.50;97.20;;;;;;5054845;28;20534;-91
2024/01/13 05:54:54;;;;;;;19.80;13.67;;;2.50;97.10;;;;;;5072888;28;20174;-90
2024/01/13 05:57:19;;;;;;;21.37;13.67;;;2.50;97.20;;;;;;5054598;28;20683;-90
2024/01/13 05:59:45;;;;;;;21.43;14.13;;;2.60;97.10;;;;;;5057837;28;20226;-91
2024/01/13 06:02:11;;;;;;;17.70;12.43;;;2.50;97.10;;;;;;5058457;28;20217;-90
2024/01/13 06:04:36;;;;;;;17.67;12.50;;;2.50;97.20;;;;;;5058537;28;20084;-90
2024/01/13 06:07:04;;;;;;;13.90;11.40;;;2.50;97.10;;;;;;5058110;28;20088;-91
2024/01/13 06:09:30;;;;;;;16.20;12.20;;;2.50;97.10;;;;;;5076056;28;20267;-90
2024/01/13 06:11:56;;;;;;;15.43;11.83;;;2.50;97.20;;;;;;5058086;28;20175;-90
2024/01/13 06:14:21;;;;;;;15.93;12.30;;;2.40;97.10;;;;;;5076030;28;20236;-90
2024/01/13 06:16:47;;;;;;;20.07;13.53;;;2.50;97.10;;;;;;5058027;28;20199;-91
2024/01/13 06:19:13;;;;;;;14.30;11.53;;;2.40;97.10;;;;;;5075917;28;20269;-91
2024/01/13 06:21:45;;;;;;;12.07;7.43;;;2.40;97.10;;;;;;5058021;28;20194;-90
2024/01/13 06:24:11;;;;;;;10.53;7.53;;;2.40;97.10;;;;;;5075822;28;20176;-90
2024/01/13 06:26:39;;;;;;;13.80;7.80;;;2.40;97.10;;;;;;5075877;28;20171;-90
2024/01/13 06:29:05;;;;;;;13.50;7.80;;;2.40;97.10;;;;;;5057788;28;20336;-90
2024/01/13 06:31:32;;;;;;;16.90;10.43;;;2.40;97.10;;;;;;5059066;28;20333;-91
2024/01/13 06:33:57;;;;;;;18.40;9.73;;;2.50;97.10;;;;;;5075990;28;20671;-91
2024/01/13 06:36:23;;;;;;;16.90;9.97;;;2.40;97.10;;;;;;5058749;28;20102;-92
2024/01/13 06:38:48;;;;;;;22.20;9.07;;;2.40;97.10;;;;;;5057912;28;20176;-91
2024/01/13 06:41:15;;;;;;;15.57;9.33;;;2.40;97.10;;;;;;5057617;28;20663;-91
2024/01/13 06:43:40;;;;;;;9.03;7.37;;;2.50;97.10;;;;;;5057609;28;20172;-90
2024/01/13 06:46:09;;;;;;;11.83;8.37;;;2.50;97.10;;;;;;5057664;28;20196;-90
2024/01/13 06:48:35;;;;;;;11.70;8.37;;;2.50;97.10;;;;;;5057478;28;20172;-90
2024/01/13 06:51:00;;;;;;;13.90;9.43;;;2.60;97.10;;;;;;5075327;28;20671;-90
2024/01/13 06:53:26;;;;;;;11.27;7.20;;;2.50;97.10;;;;;;5057450;28;20533;-91
2024/01/13 06:55:52;;;;;;;11.60;8.37;;;2.50;97.10;;;;;;5057226;28;20172;-90
2024/01/13 06:58:17;;;;;;;12.07;7.30;;;2.50;97.10;;;;;;5075255;28;20171;-91
2024/01/13 07:00:43;;;;;;;8.67;5.37;;;2.60;97.10;;;;;;5057734;28;20218;-91
2024/01/13 07:03:09;;;;;;;10.73;7.60;;;2.50;97.00;;;;;;5057266;28;20183;-91
2024/01/13 07:05:34;;;;;;;13.60;7.57;;;2.50;97.00;;;;;;5057314;28;20171;-91
2024/01/13 07:08:00;;;;;;;14.10;7.50;;;2.60;97.00;;;;;;5057299;28;20176;-90
2024/01/13 07:10:29;;;;;;;11.80;7.40;;;2.50;97.00;;;;;;5056616;28;20202;-91
2024/01/13 07:12:55;;;;;;;17.43;10.10;;;2.50;97.00;;;;;;5075028;28;20182;-89
2024/01/13 07:15:21;;;;;;;10.43;7.77;;;2.60;97.10;;;;;;5075799;28;20172;-90
2024/01/13 07:17:46;;;;;;;13.97;9.03;;;2.60;97.00;;;;;;5058913;28;20203;-91
2024/01/13 07:20:12;;;;;;;17.83;9.63;;;2.50;97.00;;;;;;5057705;28;20260;-90
2024/01/13 07:22:38;;;;;;;17.30;9.07;;;2.50;97.00;;;;;;5057308;28;20189;-91
2024/01/13 07:25:04;;;;;;;13.83;7.90;;;2.60;97.00;;;;;;5057146;28;20179;-91
2024/01/13 07:27:30;;;;;;;15.13;8.10;;;2.60;97.00;;;;;;5074806;28;20219;-91
2024/01/13 07:29:56;;;;;;;12.17;8.60;;;2.60;97.00;;;;;;5074816;28;20196;-92
2024/01/13 07:32:22;;;;;;;15.13;8.97;;;2.60;97.00;;;;;;5056631;28;20195;-90
2024/01/13 07:34:49;;;;;;;22.83;11.50;;;2.60;97.00;;;;;;5057011;28;20183;-90
2024/01/13 07:37:14;;;;;;;18.90;11.43;;;2.60;97.00;;;;;;5058370;28;20211;-88
2024/01/13 07:39:40;;;;;;;10.53;7.57;;;2.60;97.00;;;;;;5056500;28;20191;-90
2024/01/13 07:42:05;;;;;;;20.37;12.60;;;2.60;96.90;;;;;;5056509;28;20171;-90
2024/01/13 07:44:31;;;;;;;19.80;9.67;;;2.60;97.00;;;;;;5056579;28;20199;-91
2024/01/13 07:47:01;;;;;;;15.37;9.27;;;2.60;97.00;;;;;;5056329;28;20644;-91
2024/01/13 07:49:30;;;;;;;16.80;9.03;;;2.60;97.00;;;;;;5074029;28;20167;-90
2024/01/13 07:51:56;;;;;;;15.90;9.73;;;2.60;97.00;;;;;;5056356;28;20655;-90
2024/01/13 07:54:22;;;;;;;13.93;8.90;;;2.60;96.90;;;;;;5056475;28;20175;-88
2024/01/13 07:56:49;;;;;;;7.13;5.63;;;2.60;96.90;;;;;;5056430;28;20585;-88
2024/01/13 07:59:16;;;;;;;13.03;8.13;;;2.60;97.00;;;;;;5056733;28;20176;-90
2024/01/13 08:01:42;;;;;;;8.80;6.93;;;2.60;96.90;;;;;;5057343;28;20231;-90
2024/01/13 08:04:07;;;;;;;12.20;8.57;;;2.60;96.90;;;;;;5075437;28;20176;-90
2024/01/13 08:06:33;;;;;;;9.57;6.60;;;2.60;97.00;;;;;;5066516;28;20168;-90
2024/01/13 08:08:59;;;;;;;7.67;6.47;;;2.60;97.00;;;;;;5056223;28;20646;-90
2024/01/13 08:11:24;;;;;;;13.50;11.20;;;2.60;97.00;;;;;;5056506;28;20195;-91
2024/01/13 08:13:50;;;;;;;19.67;13.23;;;2.60;97.00;;;;;;5056423;28;20179;-91
2024/01/13 08:16:15;;;;;;;13.00;10.33;;;2.60;97.00;;;;;;5056087;28;20719;-89
2024/01/13 08:18:41;;;;;;;9.93;9.03;;;2.60;97.00;;;;;;5055939;28;20555;-90
2024/01/13 08:21:07;;;;;;;9.87;8.93;;;2.60;96.90;;;;;;5072871;28;20677;-90
2024/01/13 08:23:33;;;;;;;19.73;13.87;;;2.60;96.90;;;;;;5074044;28;20163;-90
2024/01/13 08:25:59;;;;;;;17.77;13.20;;;2.60;96.90;;;;;;5056070;28;20614;-90
2024/01/13 08:28:25;;;;;;;10.83;9.80;;;2.60;96.90;;;;;;5056102;28;20210;-90
2024/01/13 08:30:50;;;;;;;18.27;12.87;;;2.60;96.90;;;;;;5055893;28;20671;-90
2024/01/13 08:33:16;;;;;;;14.77;10.83;;;2.60;96.90;;;;;;5055725;28;20191;-90
2024/01/13 08:35:41;;;;;;;12.93;11.53;;;2.70;97.00;;;;;;5055803;28;20236;-90
2024/01/13 08:38:07;;;;;;;14.17;12.33;;;2.70;97.00;;;;;;5055730;28;20199;-90
2024/01/13 08:40:33;;;;;;;11.23;9.93;;;2.70;96.90;;;;;;5073492;28;20198;-90
2024/01/13 08:43:00;;;;;;;12.03;10.77;;;2.70;96.90;;;;;;5055449;28;20167;-90
2024/01/13 08:45:29;;;;;;;16.57;13.90;;;2.70;96.90;;;;;;5057024;28;20712;-90
2024/01/13 08:47:56;;;;;;;12.63;11.33;;;2.70;97.00;;;;;;5056343;28;20175;-90
2024/01/13 08:50:22;;;;;;;10.20;9.40;;;2.70;97.00;;;;;;5056387;28;20570;-91
2024/01/13 08:52:51;;;;;;;13.93;12.13;;;2.80;97.00;;;;;;5056452;28;20577;-89
2024/01/13 08:55:17;;;;;;;16.97;13.47;;;2.80;97.00;;;;;;5055364;28;20203;-90
2024/01/13 08:57:43;;;;;;;9.47;8.63;;;2.80;96.90;;;;;;5055322;28;20207;-90
2024/01/13 09:00:09;;;;;;;13.90;12.40;;;2.80;97.00;;;;;;5055433;28;20192;-90
2024/01/13 09:02:34;;;;;;;15.30;13.17;;;2.80;96.90;;;;;;5068934;28;20182;-92
2024/01/13 09:05:00;;;;;;;18.23;13.93;;;2.80;96.90;;;;;;5079942;28;20179;-92
2024/01/13 09:07:25;;;;;;;13.60;11.97;;;2.80;97.00;;;;;;5080525;28;20166;-92
2024/01/13 09:09:51;;;;;;;19.67;13.27;;;2.90;96.90;;;;;;5078986;28;20226;-93
2024/01/13 09:12:17;;;;;;;12.17;8.60;;;2.90;96.90;;;;;;5080718;28;20160;-93
2024/01/13 09:14:45;;;;;;;14.63;9.20;;;2.80;96.90;;;;;;5081141;28;20143;-92
2024/01/13 09:17:11;;;;;;;9.87;9.07;;;2.90;96.90;;;;;;5080215;28;20211;-93
2024/01/13 09:19:37;;;;;;;13.67;10.30;;;2.90;96.80;;;;;;5078393;28;20251;-93
2024/01/13 09:22:03;;;;;;;13.13;10.77;;;2.90;96.80;;;;;;5079988;28;20188;-93
2024/01/13 09:24:28;;;;;;;10.47;9.50;;;2.90;96.80;;;;;;5079437;28;20198;-93
2024/01/13 09:26:55;;;;;;;9.30;8.50;;;2.90;96.80;;;;;;5079123;28;20204;-92
2024/01/13 09:29:21;;;;;;;11.90;10.70;;;2.90;96.80;;;;;;5077789;28;20171;-92
2024/01/13 09:31:47;;;;;;;13.27;11.87;;;2.90;96.80;;;;;;5076281;28;20184;-93
2024/01/13 09:34:15;;;;;;;11.07;10.03;;;2.90;96.80;;;;;;5080507;28;20190;-93
2024/01/13 09:36:45;;;;;;;12.07;10.93;;;2.90;96.80;;;;;;5062928;28;20219;-93
2024/01/13 09:39:15;;;;;;;14.50;9.37;;;2.90;96.70;;;;;;5083381;28;20183;-93
2024/01/13 09:41:43;;;;;;;15.80;12.83;;;2.90;96.70;;;;;;5081634;28;20195;-92
2024/01/13 09:44:26;;;;;;;12.30;10.93;;;2.90;96.70;;;;;;5141064;22;20235;-92
2024/01/13 09:46:54;;;;;;;11.10;10.20;;;2.90;96.70;;;;;;5079551;28;20186;-93
2024/01/13 09:49:23;;;;;;;12.27;11.10;;;2.90;96.70;;;;;;5062748;28;20173;-93
2024/01/13 09:51:54;;;;;;;9.70;8.67;;;2.90;96.70;;;;;;5061710;28;20168;-93
2024/01/13 09:54:25;;;;;;;8.10;7.30;;;2.90;96.70;;;;;;5062937;28;20169;-93
2024/01/13 09:56:55;;;;;;;6.83;6.20;;;2.90;96.80;;;;;;5062974;28;20199;-93
2024/01/13 09:59:25;;;;;;;12.40;10.73;;;3.00;96.80;;;;;;5046794;28;20244;-93
2024/01/13 10:01:54;;;;;;;8.07;7.27;;;3.00;96.80;;;;;;5077066;22;20226;-93
2024/01/13 10:04:20;;;;;;;12.13;9.10;;;3.00;96.80;;;;;;4981527;28;20188;-92
2024/01/13 10:09:27;;;;;;;11.03;9.50;;;3.00;96.80;;;;;;5304626;22;20230;-95
2024/01/13 11:11:24;;;;;;;5.47;4.97;;;3.30;97.00;;;;;;5073815;28;20216;-87
2024/01/13 11:13:56;;;;;;;5.83;5.40;;;3.30;97.00;;;;;;5075385;28;20157;-88
2024/01/13 11:16:25;;;;;;;7.00;6.30;;;3.40;97.00;;;;;;5075078;28;20536;-87
2024/01/13 11:18:52;;;;;;;6.00;5.40;;;3.40;97.00;;;;;;5074977;28;20170;-88
2024/01/13 11:21:19;;;;;;;8.90;7.03;;;3.40;97.00;;;;;;5057141;28;20200;-87
2024/01/13 11:23:54;;;;;;;10.47;9.63;;;3.40;97.00;;;;;;5074844;28;20182;-87
2024/01/13 11:26:33;;;;;;;10.53;8.37;;;3.40;96.90;;;;;;5057073;28;20179;-88
2024/01/13 11:28:58;;;;;;;12.87;10.67;;;3.50;96.90;;;;;;5057637;28;20176;-87
2024/01/13 11:31:40;;;;;;;10.10;8.97;;;3.50;96.90;;;;;;5056843;28;20741;-88
2024/01/13 11:34:07;;;;;;;13.90;11.50;;;3.50;96.90;;;;;;5056772;28;20183;-87
2024/01/13 11:36:34;;;;;;;11.87;9.50;;;3.50;96.90;;;;;;5056809;28;20685;-87
2024/01/13 11:39:01;;;;;;;10.50;9.40;;;3.60;96.90;;;;;;5056632;28;20183;-88
2024/01/13 11:41:51;;;;;;;17.83;12.57;;;3.50;96.90;;;;;;5074343;28;20199;-88
2024/01/13 11:44:25;;;;;;;11.83;9.10;;;3.60;96.90;;;;;;5049093;28;20239;-87
2024/01/13 11:46:58;;;;;;;;;;;3.60;96.90;;;;;;5074622;28;20038;-87
2024/01/13 11:49:45;;;;;;;14.07;10.67;;;3.60;96.90;;;;;;5056419;28;20544;-87
2024/01/13 11:52:30;;;;;;;11.33;10.27;;;3.60;96.90;;;;;;5056338;28;20179;-87
2024/01/13 11:54:57;;;;;;;14.97;10.80;;;3.50;96.90;;;;;;5056247;28;20225;-87
2024/01/13 11:57:22;;;;;;;13.77;12.30;;;3.60;96.90;;;;;;5055605;28;20212;-86
2024/01/13 11:59:49;;;;;;;17.03;11.10;;;3.60;96.90;;;;;;5056323;28;20243;-87
2024/01/13 12:02:15;;;;;;;20.23;12.43;;;3.70;97.00;;;;;;5056307;28;20183;-86
2024/01/13 12:04:42;;;;;;;12.53;11.30;;;3.70;97.00;;;;;;5073993;28;20259;-87
2024/01/13 12:07:09;;;;;;;18.00;14.20;;;3.70;97.00;;;;;;5056208;28;20181;-86
2024/01/13 12:09:35;;;;;;;20.03;12.27;;;3.70;97.00;;;;;;5073836;28;20757;-87
2024/01/13 12:12:02;;;;;;;17.77;12.87;;;3.80;97.00;;;;;;5074272;28;20245;-87
2024/01/13 12:14:35;;;;;;;12.63;9.93;;;3.80;97.00;;;;;;5074070;28;20178;-87
2024/01/13 12:17:03;;;;;;;16.37;11.80;;;3.80;97.00;;;;;;5073802;28;20258;-87
2024/01/13 12:19:36;;;;;;;17.87;11.93;;;3.70;96.90;;;;;;5073743;28;20676;-87
2024/01/13 12:22:03;;;;;;;10.90;9.80;;;3.80;97.00;;;;;;5074021;28;20158;-87
2024/01/13 12:24:30;;;;;;;16.50;10.90;;;3.80;97.00;;;;;;5055646;28;20266;-87
2024/01/13 12:26:56;;;;;;;14.97;9.83;;;3.80;97.00;;;;;;5055457;28;20792;-87
2024/01/13 12:29:25;;;;;;;11.90;9.03;;;3.90;97.00;;;;;;5055753;28;20177;-88
2024/01/13 12:31:53;;;;;;;12.50;9.83;;;3.90;97.00;;;;;;5073684;28;20173;-87
2024/01/13 12:34:20;;;;;;;11.83;8.60;;;3.90;97.00;;;;;;5055636;28;20181;-88
2024/01/13 12:36:45;;;;;;;11.43;7.37;;;4.00;96.90;;;;;;5073479;28;20248;-88
2024/01/13 12:39:12;;;;;;;15.17;10.80;;;4.00;96.90;;;;;;5073578;28;20173;-87
2024/01/13 12:41:38;;;;;;;13.63;10.30;;;3.90;96.90;;;;;;5055488;28;20677;-87
2024/01/13 12:44:04;;;;;;;16.33;9.67;;;3.90;96.90;;;;;;5055469;28;20232;-87
2024/01/13 12:46:34;;;;;;;8.53;7.83;;;3.90;96.90;;;;;;5073415;28;20699;-87
2024/01/13 12:49:16;;;;;;;10.87;7.00;;;3.90;96.90;;;;;;5073725;28;20241;-86
2024/01/13 12:51:46;;;;;;;10.37;7.33;;;4.00;96.80;;;;;;5073320;28;20247;-87
2024/01/13 12:54:16;;;;;;;6.40;5.60;;;4.00;96.80;;;;;;5056140;28;20166;-87
2024/01/13 12:56:42;;;;;;;6.53;5.03;;;4.00;96.80;;;;;;5055258;28;20268;-87
2024/01/13 12:59:08;;;;;;;6.17;5.27;;;4.00;96.70;;;;;;5055322;28;20174;-87
2024/01/13 13:01:34;;;;;;;12.93;6.17;;;4.10;96.70;;;;;;5055282;28;20175;-87
2024/01/13 13:03:59;;;;;;;14.43;8.33;;;4.00;96.60;;;;;;5055376;28;20649;-87
2024/01/13 13:06:26;;;;;;;14.67;6.57;;;4.00;96.60;;;;;;5055144;28;20170;-87
2024/01/13 13:08:52;;;;;;;15.27;8.17;;;4.00;96.60;;;;;;5073195;28;20182;-87
2024/01/13 13:11:18;;;;;;;17.37;5.53;;;4.00;96.60;;;;;;5054998;28;20256;-87
2024/01/13 13:13:44;;;;;;;18.37;9.20;;;4.10;96.60;;;;;;5073436;28;20174;-87
2024/01/13 13:16:09;;;;;;;11.10;6.37;;;4.10;96.70;;;;;;5072972;28;20166;-87
2024/01/13 13:18:35;;;;;;;10.63;6.10;;;4.10;96.70;;;;;;5073142;28;20282;-87
2024/01/13 13:21:01;;;;;;;16.53;7.07;;;4.10;96.70;;;;;;5054987;28;20191;-88
2024/01/13 13:23:26;;;;;;;10.80;7.53;;;4.10;96.70;;;;;;5055254;28;20177;-87
2024/01/13 13:25:52;;;;;;;6.10;5.17;;;4.20;96.80;;;;;;5055092;28;20175;-87
2024/01/13 13:28:18;;;;;;;11.43;7.57;;;4.20;96.80;;;;;;5054930;28;20227;-87
2024/01/13 13:30:43;;;;;;;11.73;7.17;;;4.20;96.70;;;;;;5072662;28;20213;-88
2024/01/13 13:33:10;;;;;;;11.60;7.13;;;4.30;96.80;;;;;;5054821;28;20186;-87
2024/01/13 13:35:38;;;;;;;20.47;7.63;;;4.20;96.80;;;;;;5054761;28;20178;-88
2024/01/13 13:38:06;;;;;;;14.20;6.83;;;4.30;96.80;;;;;;5054711;28;20559;-88
2024/01/13 13:40:32;;;;;;;9.57;4.93;;;4.30;96.80;;;;;;5054804;28;20194;-88
2024/01/13 13:42:58;;;;;;;7.43;5.40;;;4.40;96.80;;;;;;5054774;28;20599;-87
2024/01/13 13:45:23;;;;;;;10.40;5.30;;;4.40;96.80;;;;;;5054694;28;20221;-88
2024/01/13 13:47:51;;;;;;;9.47;4.03;;;4.40;96.80;;;;;;5054710;28;20179;-88